Falmouth, MA

3:43 PM EDT on August 03, 2015 (GMT -0400)
Wb1DSG E. Falmouth, MA, USA | | Change Station
CLOSE
Current Station
Personal Weather Station
Location: East Falmouth, MA
Elevation: 74 ft
Nearby Weather Stations

Elev 74 ft 41.59 °N, 70.60 °W | Updated 33 days ago

Clear
Clear
80 °F
Feels Like 83 °F
N
15
Wind Variable Wind from SSW
Gusts 21 mph

Today
High -- | Low -- °F
--% Chance of Precip.
Yesterday
High -- | Low -- °F
Precip. -- in
5:38 AM 7:57 PM
Waning Gibbous, 84% visible
Pressure 29.83 in
Visibility 10.0 miles
Clouds Clear
Heat Index 83 °F
Dew Point 67 °F
Humidity 65%
Rainfall in
Snow Depth Not available.
UV 7 out of 12
Pollen 7.20 out of 12
Air Quality Not available.
Flu Activity Not available.
METAR KFMH 031935Z AUTO 21016KT 10SM CLR 29/17 A2983 RMK AO2

More Conditions Fewer Conditions

Pressure 29.83 in
Visibility 10.0 miles
Clouds Clear
Heat Index 83 °F
Dew Point 67 °F
Humidity 65%
Rainfall in
Snow Depth Not available.
UV 7 out of 12
Pollen 7.20 out of 12
Air Quality Not available.
Flu Activity Not available.
METAR KFMH 031935Z AUTO 21016KT 10SM CLR 29/17 A2983 RMK AO2

More Conditions Fewer Conditions

10-Day Weather Forecast

×

Almanac

Astronomy

Aug. 03, 2015 Rise Set
Actual Time
Civil Twilight
Nautical Twilight
Astronomical Twilight
Moon
Length of Visible Light
Length of Day
Tomorrow will be .
, % of the Moon is Illuminated

Today's Extremes

State Highs State Lows

Community

WunderPhotos

Upload Photos

1,843,717 photos uploaded!

WunderBlogs® & News

Nearby

Air Quality

  Air Quality AQ Index Pollutant
Not available.

Snow Depth

Station Depth Elevation

Earthquake Activity

City Distance Mag. Time & Date
Minimum magnitude displayed is 2.5.

Coastal Water Temperatures

Place Temperature

Stations

Nearby Weather Stations

Station Location Temp. Windchill Dew Point Humidity Wind Precip. Elev Updated Type